createdAt,value
2019-03-24T00:02:15.875Z,68.8
2019-03-24T00:15:06.018Z,67.5
2019-03-24T00:32:16.131Z,66.5
2019-03-24T00:47:17.190Z,66.8
2019-03-24T01:00:06.104Z,67.3
2019-03-24T01:17:15.355Z,68.3
2019-03-24T01:32:16.457Z,67.3
2019-03-24T01:45:06.244Z,67.4
2019-03-24T02:00:06.287Z,66.9
2019-03-24T02:15:06.358Z,67.2
2019-03-24T02:30:06.527Z,67.3
2019-03-24T02:45:06.450Z,69.8
2019-03-24T03:00:06.476Z,69.6
2019-03-24T03:15:06.486Z,68.4
2019-03-24T03:32:17.233Z,68.7
2019-03-24T03:45:06.598Z,69.3
2019-03-24T04:00:06.602Z,70.2
2019-03-24T04:17:16.471Z,69.9
2019-03-24T04:30:06.676Z,70.4
2019-03-24T04:45:06.690Z,68.3
2019-03-24T05:02:17.789Z,67.4
2019-03-24T05:15:06.771Z,68.1
2019-03-24T05:30:06.813Z,70.8
2019-03-24T05:47:17.054Z,69.6
2019-03-24T06:00:06.894Z,69.4
2019-03-24T06:15:06.971Z,69.2
2019-03-24T06:30:06.965Z,69.8
2019-03-24T06:47:17.445Z,72.5
2019-03-24T07:00:07.033Z,72.3
2019-03-24T07:15:07.113Z,71.8
2019-03-24T07:30:07.149Z,74.6
2019-03-24T07:45:07.145Z,73.4
2019-03-24T08:00:07.231Z,73.1
2019-03-24T08:15:07.194Z,69
2019-03-24T08:32:17.084Z,64.8
2019-03-24T08:45:07.263Z,61.6
2019-03-24T09:02:17.274Z,60
2019-03-24T09:15:07.390Z,56.5
2019-03-24T09:32:17.468Z,53.5
2019-03-24T09:45:07.413Z,50.9
2019-03-24T10:00:07.459Z,49.4
2019-03-24T10:15:07.492Z,50.9
2019-03-24T10:30:07.529Z,47.5
2019-03-24T10:45:07.569Z,48.8
2019-03-24T11:02:18.055Z,49.2
2019-03-24T11:15:07.662Z,47.5
2019-03-24T11:30:07.717Z,46.3
2019-03-24T11:47:26.949Z,44.1
2019-03-24T12:02:18.429Z,42.2
2019-03-24T12:15:07.828Z,41.8
2019-03-24T12:30:07.844Z,42.2
2019-03-24T12:45:08.014Z,38.7
2019-03-24T13:02:18.890Z,38.4
2019-03-24T13:15:07.991Z,39.8
2019-03-24T13:32:19.084Z,40.1
2019-03-24T13:45:08.103Z,39.1
2019-03-24T14:02:19.288Z,37.1
2019-03-24T14:17:20.381Z,33.8
2019-03-24T14:30:10.734Z,37
2019-03-24T14:45:10.776Z,38.9
2019-03-24T15:00:10.809Z,38.6
2019-03-24T15:15:10.874Z,39.1
2019-03-24T15:30:10.907Z,36.1
2019-03-24T15:45:10.944Z,37.9
2019-03-24T16:00:10.957Z,32.5
2019-03-24T16:15:10.986Z,33
2019-03-24T16:30:11.031Z,35.8
2019-03-24T16:45:11.085Z,37.2
2019-03-24T17:02:20.407Z,38.9
2019-03-24T17:15:11.162Z,40.2
2019-03-24T17:30:11.187Z,40.9
2019-03-24T17:47:21.722Z,42.7
2019-03-24T18:00:11.288Z,44.9
2019-03-24T18:15:11.338Z,48.1
2019-03-24T18:30:11.397Z,55.3
2019-03-24T18:45:11.435Z,57.5
2019-03-24T19:02:21.237Z,58.8
2019-03-24T19:15:11.462Z,59.9
2019-03-24T19:30:11.543Z,60.6
2019-03-24T19:45:11.567Z,61.2
2019-03-24T20:02:21.565Z,60.5
2019-03-24T20:17:22.723Z,59.8
2019-03-24T20:32:21.763Z,60.5
2019-03-24T20:45:11.719Z,62.1
2019-03-24T21:02:21.951Z,64.8
2019-03-24T21:15:12.066Z,64.5
2019-03-24T21:34:33.120Z,65
2019-03-24T21:45:11.863Z,66.1
2019-03-24T22:02:22.329Z,66.3
2019-03-24T22:19:32.431Z,67.5
2019-03-24T22:30:11.985Z,68.6
2019-03-24T22:45:12.048Z,68.4
2019-03-24T23:00:12.064Z,68.7
2019-03-24T23:15:12.129Z,70.7
2019-03-24T23:32:22.914Z,70.3
2019-03-24T23:47:21.974Z,70
